createdAt,value
2023-05-22T00:02:32.495Z,14.4
2023-05-22T00:08:24.284Z,14.4
2023-05-22T00:13:59.880Z,14.5
2023-05-22T00:19:52.362Z,14.4
2023-05-22T00:25:43.853Z,14.3
2023-05-22T00:31:35.018Z,14.3
2023-05-22T00:37:26.814Z,14.3
2023-05-22T00:43:18.624Z,14.3
2023-05-22T00:49:10.282Z,14.3
2023-05-22T00:55:01.678Z,14.1
2023-05-22T01:00:53.105Z,14
2023-05-22T01:06:45.966Z,13.9
2023-05-22T01:12:37.608Z,13.8
2023-05-22T01:18:29.340Z,13.8
2023-05-22T01:24:21.401Z,13.6
2023-05-22T01:30:13.268Z,13.5
2023-05-22T01:36:04.815Z,13.5
2023-05-22T01:41:55.990Z,13.3
2023-05-22T01:47:48.604Z,13.3
2023-05-22T01:53:39.513Z,13.3
2023-05-22T01:59:30.733Z,13.2
2023-05-22T02:05:24.480Z,13.4
2023-05-22T02:11:15.987Z,13.1
2023-05-22T02:17:07.883Z,13.1
2023-05-22T02:22:44.782Z,13
2023-05-22T02:28:36.361Z,12.9
2023-05-22T02:34:28.296Z,12.9
2023-05-22T02:40:20.067Z,12.9
2023-05-22T02:46:11.844Z,12.6
2023-05-22T02:52:03.302Z,11.7
2023-05-22T02:57:54.876Z,11.3
2023-05-22T03:03:47.002Z,11.3
2023-05-22T03:09:38.582Z,11.3
2023-05-22T03:15:30.650Z,11.4
2023-05-22T03:21:22.534Z,11.6
2023-05-22T03:27:13.429Z,11.8
2023-05-22T03:33:05.925Z,11.5
2023-05-22T03:38:57.696Z,11.6
2023-05-22T03:44:35.023Z,11.6
2023-05-22T03:50:12.185Z,11.7
2023-05-22T03:56:05.699Z,11.6
2023-05-22T04:01:56.354Z,11.4
2023-05-22T04:07:48.748Z,11.6
2023-05-22T04:13:40.824Z,11.6
2023-05-22T04:19:31.911Z,11.7
2023-05-22T04:25:23.552Z,11.8
2023-05-22T04:31:15.044Z,11.9
2023-05-22T04:36:51.336Z,12.1
2023-05-22T04:42:29.583Z,12.2
2023-05-22T04:48:21.288Z,12.3
2023-05-22T04:54:12.670Z,12.7
2023-05-22T05:00:17.127Z,13.6
2023-05-22T05:06:10.562Z,14.4
2023-05-22T05:12:03.127Z,14.7
2023-05-22T05:17:55.408Z,15.2
2023-05-22T05:23:34.669Z,15.4
2023-05-22T05:29:25.357Z,15.9
2023-05-22T05:35:17.107Z,15.9
2023-05-22T05:40:53.417Z,16.5
2023-05-22T05:46:45.045Z,16.8
2023-05-22T05:52:36.092Z,17.6
2023-05-22T05:58:28.476Z,17.7
2023-05-22T06:04:22.027Z,17.4
2023-05-22T06:15:49.901Z,17.5
2023-05-22T06:21:43.415Z,17.3
2023-05-22T06:27:34.842Z,16.8
2023-05-22T06:33:47.186Z,17.3
2023-05-22T06:39:39.309Z,17.9
2023-05-22T06:45:30.930Z,19.1
2023-05-22T06:51:23.629Z,19.2
2023-05-22T06:57:15.778Z,19.2
2023-05-22T07:03:08.427Z,19.4
2023-05-22T07:09:03.554Z,19.4
2023-05-22T07:14:56.029Z,19.7
2023-05-22T07:20:50.985Z,19.5
2023-05-22T07:26:43.650Z,20.3
2023-05-22T07:32:35.989Z,20.6
2023-05-22T07:38:28.642Z,20.7
2023-05-22T07:44:22.734Z,20.7
2023-05-22T07:50:15.390Z,21.6
2023-05-22T07:56:09.332Z,21.8
2023-05-22T08:02:01.123Z,21.8
2023-05-22T08:07:41.105Z,21.6
2023-05-22T08:13:59.095Z,22.4
2023-05-22T08:19:58.924Z,23.4
2023-05-22T08:25:36.486Z,22.8
2023-05-22T08:31:29.063Z,21.6
2023-05-22T08:37:21.822Z,22.5
2023-05-22T08:43:16.203Z,22.2
2023-05-22T08:49:08.043Z,23.3
2023-05-22T08:55:00.506Z,23.7
2023-05-22T09:00:59.190Z,23.4
2023-05-22T09:06:54.540Z,24
2023-05-22T09:12:59.375Z,23.5
2023-05-22T09:18:52.780Z,22.8
2023-05-22T09:24:58.912Z,22.1
2023-05-22T09:30:51.499Z,22.1
2023-05-22T09:36:44.541Z,22
2023-05-22T09:42:37.448Z,21.7
2023-05-22T09:48:32.823Z,22.3
2023-05-22T09:54:24.940Z,23.9
2023-05-22T10:00:34.287Z,23.9
2023-05-22T10:06:29.614Z,23.8
2023-05-22T10:12:26.502Z,22.9
2023-05-22T10:18:20.863Z,22.1
2023-05-22T10:24:16.598Z,21.8
2023-05-22T10:29:54.867Z,21.8
2023-05-22T10:35:49.102Z,21.6
2023-05-22T10:41:52.667Z,20.9
2023-05-22T10:47:47.800Z,20.4
2023-05-22T10:53:26.227Z,20.6
2023-05-22T10:59:19.684Z,21.3
2023-05-22T11:05:24.598Z,21.3
2023-05-22T11:11:18.746Z,21.6
2023-05-22T11:17:17.296Z,22.1
2023-05-22T11:23:21.456Z,22.3
2023-05-22T11:35:38.905Z,20.9
2023-05-22T11:41:16.702Z,18.8
2023-05-22T11:47:12.248Z,16.6
2023-05-22T11:53:16.832Z,16.4
2023-05-22T11:59:11.952Z,16.3
2023-05-22T12:05:11.853Z,15.9
2023-05-22T12:11:07.470Z,15.9
2023-05-22T12:17:03.528Z,15.8
2023-05-22T12:22:43.307Z,16
2023-05-22T12:28:40.219Z,16.5
2023-05-22T12:34:34.934Z,16.9
2023-05-22T12:40:14.208Z,16.6
2023-05-22T12:46:09.883Z,16.6
2023-05-22T12:51:53.118Z,16.3
2023-05-22T12:57:48.481Z,16.2
2023-05-22T13:03:44.008Z,16.7
2023-05-22T13:15:23.896Z,17.1
2023-05-22T13:21:26.628Z,17.3
2023-05-22T13:27:27.514Z,17.4
2023-05-22T13:33:09.787Z,17.6
2023-05-22T13:39:08.353Z,17.8
2023-05-22T13:45:04.735Z,18.6
2023-05-22T13:50:45.287Z,19.9
2023-05-22T13:56:38.865Z,19.9
2023-05-22T14:02:18.966Z,20.3
2023-05-22T14:07:41.954Z,20.7
2023-05-22T14:13:19.151Z,20.6
2023-05-22T14:18:56.443Z,21.3
2023-05-22T14:25:00.161Z,21.3
2023-05-22T14:30:53.178Z,21.3
2023-05-22T14:36:30.852Z,21.8
2023-05-22T14:41:52.214Z,20
2023-05-22T14:47:45.511Z,19.2
2023-05-22T14:53:50.642Z,18.9
2023-05-22T14:59:43.445Z,17.4
2023-05-22T15:05:38.240Z,16.9
2023-05-22T15:11:39.872Z,17.2
2023-05-22T15:17:32.397Z,17.6
2023-05-22T15:23:37.300Z,17.5
2023-05-22T15:29:32.402Z,17.3
2023-05-22T15:35:25.374Z,17.3
2023-05-22T15:41:18.662Z,17.3
2023-05-22T15:47:23.314Z,17.3
2023-05-22T15:53:16.150Z,17.8
2023-05-22T15:59:11.478Z,17.9
2023-05-22T16:05:05.897Z,18.3
2023-05-22T16:10:43.597Z,17.5
2023-05-22T16:16:41.264Z,18.1
2023-05-22T16:22:47.054Z,17.1
2023-05-22T16:28:42.601Z,16.7
2023-05-22T16:34:36.714Z,16.5
2023-05-22T16:40:13.227Z,16.2
2023-05-22T16:46:07.858Z,16
2023-05-22T16:52:01.155Z,15.9
2023-05-22T16:57:53.011Z,15.8
2023-05-22T17:03:47.074Z,15.8
2023-05-22T17:09:24.885Z,15.6
2023-05-22T17:15:17.107Z,15.3
2023-05-22T17:21:12.716Z,14.7
2023-05-22T17:26:51.382Z,14.6
2023-05-22T17:32:39.843Z,14.5
2023-05-22T17:38:32.065Z,14.4
2023-05-22T17:44:40.536Z,14.3
2023-05-22T17:50:33.124Z,14.2
2023-05-22T17:56:26.897Z,14.1
2023-05-22T18:02:04.325Z,14.1
2023-05-22T18:07:29.357Z,13.9
2023-05-22T18:13:37.587Z,13.9
2023-05-22T18:19:31.088Z,13.9
2023-05-22T18:25:22.908Z,13.8
2023-05-22T18:30:44.480Z,13.8
2023-05-22T18:36:38.543Z,13.8
2023-05-22T18:42:30.303Z,13.9
2023-05-22T18:48:23.252Z,14
2023-05-22T18:54:15.831Z,14.1
2023-05-22T19:00:08.045Z,14.1
2023-05-22T19:05:46.791Z,14.1
2023-05-22T19:10:56.856Z,14.1
2023-05-22T19:16:18.588Z,14.1
2023-05-22T19:21:40.549Z,13.8
2023-05-22T19:26:46.302Z,13.5
2023-05-22T19:32:27.732Z,13.3
2023-05-22T19:38:20.460Z,13.3
2023-05-22T19:44:13.560Z,13.6
2023-05-22T19:49:51.413Z,13.4
2023-05-22T19:55:44.369Z,13.3
2023-05-22T20:01:37.962Z,13.1
2023-05-22T20:07:00.257Z,13.1
2023-05-22T20:12:37.380Z,12.9
2023-05-22T20:18:15.020Z,12.8
2023-05-22T20:24:07.616Z,12.8
2023-05-22T20:30:00.672Z,12.7
2023-05-22T20:35:53.880Z,12.6
2023-05-22T20:41:46.539Z,12.6
2023-05-22T20:47:39.631Z,12.5
2023-05-22T20:53:16.211Z,12.4
2023-05-22T20:59:07.821Z,12.4
2023-05-22T21:05:01.340Z,12.4
2023-05-22T21:10:55.585Z,12.3
2023-05-22T21:16:48.161Z,12.3
2023-05-22T21:22:41.465Z,12.2
2023-05-22T21:28:33.783Z,11.9
2023-05-22T21:34:26.984Z,11.9
2023-05-22T21:40:20.111Z,11.8
2023-05-22T21:46:09.485Z,11.7
2023-05-22T21:52:03.674Z,11.6
2023-05-22T21:57:55.778Z,11.6
2023-05-22T22:03:49.454Z,11.5
2023-05-22T22:09:42.128Z,11.4
2023-05-22T22:15:34.726Z,11.4
2023-05-22T22:21:40.660Z,11.4
2023-05-22T22:27:32.698Z,11.3
2023-05-22T22:33:25.456Z,11.3
2023-05-22T22:39:17.817Z,11.3
2023-05-22T22:44:58.799Z,11.1
2023-05-22T22:50:36.357Z,11.1
2023-05-22T22:56:30.411Z,11.1
2023-05-22T23:02:22.325Z,11.1
2023-05-22T23:08:15.826Z,11
2023-05-22T23:14:09.211Z,10.9
2023-05-22T23:20:01.287Z,10.9
2023-05-22T23:31:02.150Z,10.6
2023-05-22T23:36:38.536Z,10.6
2023-05-22T23:42:15.417Z,10.4
2023-05-22T23:47:52.300Z,10.3
2023-05-22T23:53:43.797Z,10.1
2023-05-22T23:59:36.468Z,9.8
